sensor_id;sensor_type;location;lat;lon;timestamp;pressure;altitude;pressure_sealevel;temperature;humidity
77077;BME280;66003;52.286;104.306;2023-07-22T00:00:01;96351.56;;;42.47;15.19
77077;BME280;66003;52.286;104.306;2023-07-22T00:02:32;96347.63;;;42.39;15.54
77077;BME280;66003;52.286;104.306;2023-07-22T00:04:58;96347.78;;;42.71;15.57
77077;BME280;66003;52.286;104.306;2023-07-22T00:07:24;96351.72;;;42.99;14.92
77077;BME280;66003;52.286;104.306;2023-07-22T00:09:50;96357.69;;;43.53;15.08
77077;BME280;66003;52.286;104.306;2023-07-22T00:12:16;96354.63;;;44.08;14.15
77077;BME280;66003;52.286;104.306;2023-07-22T00:14:43;96361.81;;;44.52;13.76
77077;BME280;66003;52.286;104.306;2023-07-22T00:17:10;96361.78;;;44.89;13.82
77077;BME280;66003;52.286;104.306;2023-07-22T00:19:36;96348.41;;;45.54;13.31
77077;BME280;66003;52.286;104.306;2023-07-22T00:22:02;96351.22;;;45.82;13.18
77077;BME280;66003;52.286;104.306;2023-07-22T00:24:28;96366.41;;;46.29;12.81
77077;BME280;66003;52.286;104.306;2023-07-22T00:26:55;96352.50;;;46.43;12.82
77077;BME280;66003;52.286;104.306;2023-07-22T00:29:21;96353.00;;;46.47;12.78
77077;BME280;66003;52.286;104.306;2023-07-22T00:31:47;96353.44;;;46.79;12.45
77077;BME280;66003;52.286;104.306;2023-07-22T00:34:13;96350.75;;;47.08;12.41
77077;BME280;66003;52.286;104.306;2023-07-22T00:36:39;96346.03;;;47.63;12.22
77077;BME280;66003;52.286;104.306;2023-07-22T00:39:06;96345.50;;;48.00;11.65
77077;BME280;66003;52.286;104.306;2023-07-22T00:41:32;96349.22;;;48.20;11.38
77077;BME280;66003;52.286;104.306;2023-07-22T00:43:58;96333.91;;;48.28;11.38
77077;BME280;66003;52.286;104.306;2023-07-22T00:46:24;96343.81;;;48.16;11.27
77077;BME280;66003;52.286;104.306;2023-07-22T00:48:51;96348.97;;;48.91;11.04
77077;BME280;66003;52.286;104.306;2023-07-22T00:51:18;96338.84;;;49.14;10.25
77077;BME280;66003;52.286;104.306;2023-07-22T00:53:46;96330.38;;;49.33;10.52
77077;BME280;66003;52.286;104.306;2023-07-22T00:56:12;96344.16;;;49.42;10.66
77077;BME280;66003;52.286;104.306;2023-07-22T00:58:38;96322.34;;;49.50;10.36
77077;BME280;66003;52.286;104.306;2023-07-22T01:01:05;96336.81;;;49.33;10.69
77077;BME280;66003;52.286;104.306;2023-07-22T01:03:31;96327.09;;;49.61;10.19
77077;BME280;66003;52.286;104.306;2023-07-22T01:05:58;96329.63;;;49.96;10.03
77077;BME280;66003;52.286;104.306;2023-07-22T01:08:26;96323.53;;;50.18;10.20
77077;BME280;66003;52.286;104.306;2023-07-22T01:10:52;96308.50;;;50.50;10.17
77077;BME280;66003;52.286;104.306;2023-07-22T01:13:18;96324.91;;;50.70;9.79
77077;BME280;66003;52.286;104.306;2023-07-22T01:15:45;96318.78;;;50.79;9.56
77077;BME280;66003;52.286;104.306;2023-07-22T01:18:11;96318.72;;;51.19;9.18
77077;BME280;66003;52.286;104.306;2023-07-22T01:20:38;96317.47;;;51.41;9.32
77077;BME280;66003;52.286;104.306;2023-07-22T01:23:04;96304.84;;;51.70;9.23
77077;BME280;66003;52.286;104.306;2023-07-22T01:25:32;96317.09;;;51.78;8.78
77077;BME280;66003;52.286;104.306;2023-07-22T01:27:58;96303.16;;;51.75;9.11
77077;BME280;66003;52.286;104.306;2023-07-22T01:30:24;96313.81;;;51.74;8.97
77077;BME280;66003;52.286;104.306;2023-07-22T01:32:53;96311.34;;;51.91;9.25
77077;BME280;66003;52.286;104.306;2023-07-22T01:35:19;96301.22;;;52.11;9.02
77077;BME280;66003;52.286;104.306;2023-07-22T01:37:46;96300.97;;;52.30;8.74
77077;BME280;66003;52.286;104.306;2023-07-22T01:40:13;96309.84;;;52.47;8.39
77077;BME280;66003;52.286;104.306;2023-07-22T01:42:41;96304.16;;;52.55;8.58
77077;BME280;66003;52.286;104.306;2023-07-22T01:45:08;96300.06;;;52.35;8.58
77077;BME280;66003;52.286;104.306;2023-07-22T01:47:35;96302.00;;;52.68;8.01
77077;BME280;66003;52.286;104.306;2023-07-22T01:50:03;96308.31;;;52.75;8.04
77077;BME280;66003;52.286;104.306;2023-07-22T01:52:30;96303.38;;;52.75;8.45
77077;BME280;66003;52.286;104.306;2023-07-22T01:54:56;96301.63;;;53.16;8.81
77077;BME280;66003;52.286;104.306;2023-07-22T01:57:22;96297.38;;;52.94;8.11
77077;BME280;66003;52.286;104.306;2023-07-22T01:59:48;96300.44;;;52.96;8.53
77077;BME280;66003;52.286;104.306;2023-07-22T02:02:14;96297.94;;;53.00;8.16
77077;BME280;66003;52.286;104.306;2023-07-22T02:04:40;96302.75;;;53.05;8.11
77077;BME280;66003;52.286;104.306;2023-07-22T02:07:06;96289.00;;;52.60;7.87
77077;BME280;66003;52.286;104.306;2023-07-22T02:09:32;96282.31;;;52.29;8.17
77077;BME280;66003;52.286;104.306;2023-07-22T02:11:59;96285.81;;;52.63;8.31
77077;BME280;66003;52.286;104.306;2023-07-22T02:14:25;96277.50;;;52.52;7.57
77077;BME280;66003;52.286;104.306;2023-07-22T02:16:51;96287.25;;;52.00;8.41
77077;BME280;66003;52.286;104.306;2023-07-22T02:19:33;96287.84;;;52.91;7.19
77077;BME280;66003;52.286;104.306;2023-07-22T02:21:59;96279.66;;;51.61;8.12
77077;BME280;66003;52.286;104.306;2023-07-22T02:24:25;96277.72;;;51.77;8.00
77077;BME280;66003;52.286;104.306;2023-07-22T02:26:51;96275.53;;;52.11;7.95
77077;BME280;66003;52.286;104.306;2023-07-22T02:29:17;96262.38;;;53.16;7.14
77077;BME280;66003;52.286;104.306;2023-07-22T02:31:45;96267.34;;;53.08;7.80
77077;BME280;66003;52.286;104.306;2023-07-22T02:34:12;96262.38;;;53.09;7.61
77077;BME280;66003;52.286;104.306;2023-07-22T02:36:38;96267.81;;;53.50;7.54
77077;BME280;66003;52.286;104.306;2023-07-22T02:39:04;96254.44;;;53.37;7.34
77077;BME280;66003;52.286;104.306;2023-07-22T02:41:30;96246.63;;;53.38;7.64
77077;BME280;66003;52.286;104.306;2023-07-22T02:43:56;96250.94;;;53.09;8.26
77077;BME280;66003;52.286;104.306;2023-07-22T02:46:23;96245.31;;;52.44;7.79
77077;BME280;66003;52.286;104.306;2023-07-22T02:48:49;96248.25;;;52.23;8.36
77077;BME280;66003;52.286;104.306;2023-07-22T02:51:15;96235.16;;;51.58;8.59
77077;BME280;66003;52.286;104.306;2023-07-22T02:53:41;96243.81;;;51.66;8.98
77077;BME280;66003;52.286;104.306;2023-07-22T02:56:07;96237.38;;;51.52;8.59
77077;BME280;66003;52.286;104.306;2023-07-22T02:58:34;96242.22;;;50.76;8.80
77077;BME280;66003;52.286;104.306;2023-07-22T03:01:00;96243.47;;;48.68;10.13
77077;BME280;66003;52.286;104.306;2023-07-22T03:03:27;96242.84;;;45.96;11.76
77077;BME280;66003;52.286;104.306;2023-07-22T03:05:53;96197.00;;;42.47;13.83
77077;BME280;66003;52.286;104.306;2023-07-22T03:08:19;96220.91;;;40.17;15.59
77077;BME280;66003;52.286;104.306;2023-07-22T03:10:45;96209.13;;;38.13;17.68
77077;BME280;66003;52.286;104.306;2023-07-22T03:13:15;96227.81;;;36.71;19.06
77077;BME280;66003;52.286;104.306;2023-07-22T03:15:42;96228.41;;;35.97;20.44
77077;BME280;66003;52.286;104.306;2023-07-22T03:18:08;96208.00;;;34.98;21.06
77077;BME280;66003;52.286;104.306;2023-07-22T03:20:37;96223.19;;;34.52;21.67
77077;BME280;66003;52.286;104.306;2023-07-22T03:23:04;96210.13;;;33.75;22.98
77077;BME280;66003;52.286;104.306;2023-07-22T03:25:30;96218.81;;;33.41;23.68
77077;BME280;66003;52.286;104.306;2023-07-22T03:27:56;96222.47;;;33.38;24.82
77077;BME280;66003;52.286;104.306;2023-07-22T03:30:22;96217.03;;;33.15;24.22
77077;BME280;66003;52.286;104.306;2023-07-22T03:32:49;96197.34;;;33.09;24.37
77077;BME280;66003;52.286;104.306;2023-07-22T03:35:17;96212.97;;;33.19;23.97
77077;BME280;66003;52.286;104.306;2023-07-22T03:37:44;96216.91;;;32.82;24.33
77077;BME280;66003;52.286;104.306;2023-07-22T03:40:11;96197.59;;;32.59;24.95
77077;BME280;66003;52.286;104.306;2023-07-22T03:42:40;96203.56;;;32.57;24.85
77077;BME280;66003;52.286;104.306;2023-07-22T03:45:08;96188.19;;;32.56;25.06
77077;BME280;66003;52.286;104.306;2023-07-22T03:47:36;96212.03;;;32.90;25.29
77077;BME280;66003;52.286;104.306;2023-07-22T03:50:02;96218.34;;;32.90;24.64
77077;BME280;66003;52.286;104.306;2023-07-22T03:52:30;96201.88;;;32.83;24.19
77077;BME280;66003;52.286;104.306;2023-07-22T03:54:57;96205.22;;;32.75;24.53
77077;BME280;66003;52.286;104.306;2023-07-22T03:57:29;96193.91;;;32.46;25.13
77077;BME280;66003;52.286;104.306;2023-07-22T03:59:56;96197.81;;;32.28;24.87
77077;BME280;66003;52.286;104.306;2023-07-22T04:02:23;96203.41;;;32.02;24.94
77077;BME280;66003;52.286;104.306;2023-07-22T04:04:54;96192.28;;;32.05;24.99
77077;BME280;66003;52.286;104.306;2023-07-22T04:07:21;96200.81;;;32.14;25.48
77077;BME280;66003;52.286;104.306;2023-07-22T04:09:49;96183.63;;;32.26;25.58
77077;BME280;66003;52.286;104.306;2023-07-22T04:12:15;96183.91;;;32.52;25.28
77077;BME280;66003;52.286;104.306;2023-07-22T04:14:45;96187.66;;;32.81;24.95
77077;BME280;66003;52.286;104.306;2023-07-22T04:17:12;96193.63;;;32.99;24.25
77077;BME280;66003;52.286;104.306;2023-07-22T04:19:42;96176.22;;;32.99;24.18
77077;BME280;66003;52.286;104.306;2023-07-22T04:22:09;96182.53;;;33.35;24.93
77077;BME280;66003;52.286;104.306;2023-07-22T04:24:35;96178.56;;;33.69;24.49
77077;BME280;66003;52.286;104.306;2023-07-22T04:27:01;96178.94;;;34.32;23.47
77077;BME280;66003;52.286;104.306;2023-07-22T04:29:28;96174.75;;;34.82;22.92
77077;BME280;66003;52.286;104.306;2023-07-22T04:32:00;96170.38;;;35.48;22.29
77077;BME280;66003;52.286;104.306;2023-07-22T04:34:31;96168.44;;;35.70;22.08
77077;BME280;66003;52.286;104.306;2023-07-22T04:36:59;96172.00;;;35.83;22.11
77077;BME280;66003;52.286;104.306;2023-07-22T04:39:26;96169.78;;;36.13;21.46
77077;BME280;66003;52.286;104.306;2023-07-22T04:41:52;96177.22;;;36.29;21.42
77077;BME280;66003;52.286;104.306;2023-07-22T04:44:19;96163.75;;;36.27;21.57
77077;BME280;66003;52.286;104.306;2023-07-22T04:46:46;96172.16;;;36.36;21.25
77077;BME280;66003;52.286;104.306;2023-07-22T04:49:12;96154.56;;;36.05;22.28
77077;BME280;66003;52.286;104.306;2023-07-22T04:51:40;96170.16;;;36.37;21.97
77077;BME280;66003;52.286;104.306;2023-07-22T04:54:06;96158.00;;;36.65;21.76
77077;BME280;66003;52.286;104.306;2023-07-22T04:56:33;96160.72;;;36.78;21.19
77077;BME280;66003;52.286;104.306;2023-07-22T04:58:59;96157.22;;;36.65;21.42
77077;BME280;66003;52.286;104.306;2023-07-22T05:01:26;96160.50;;;36.50;21.39
77077;BME280;66003;52.286;104.306;2023-07-22T05:03:52;96152.03;;;36.32;21.53
77077;BME280;66003;52.286;104.306;2023-07-22T05:06:33;96153.47;;;36.02;22.33
77077;BME280;66003;52.286;104.306;2023-07-22T05:08:59;96150.22;;;36.04;22.43
77077;BME280;66003;52.286;104.306;2023-07-22T05:11:25;96149.25;;;35.98;22.16
77077;BME280;66003;52.286;104.306;2023-07-22T05:13:51;96152.16;;;35.94;21.83
77077;BME280;66003;52.286;104.306;2023-07-22T05:16:18;96146.09;;;35.74;22.15
77077;BME280;66003;52.286;104.306;2023-07-22T05:18:44;96147.22;;;35.64;22.21
77077;BME280;66003;52.286;104.306;2023-07-22T05:21:10;96147.47;;;35.44;22.94
77077;BME280;66003;52.286;104.306;2023-07-22T05:23:36;96138.00;;;35.29;22.45
77077;BME280;66003;52.286;104.306;2023-07-22T05:26:02;96138.91;;;35.00;22.60
77077;BME280;66003;52.286;104.306;2023-07-22T05:28:28;96130.56;;;35.13;22.29
77077;BME280;66003;52.286;104.306;2023-07-22T05:30:56;96139.78;;;35.10;22.54
77077;BME280;66003;52.286;104.306;2023-07-22T05:33:22;96144.78;;;34.77;23.17
77077;BME280;66003;52.286;104.306;2023-07-22T05:35:48;96133.34;;;34.88;23.30
77077;BME280;66003;52.286;104.306;2023-07-22T05:38:14;96135.38;;;35.25;23.02
77077;BME280;66003;52.286;104.306;2023-07-22T05:40:40;96130.69;;;35.35;22.82
77077;BME280;66003;52.286;104.306;2023-07-22T05:43:06;96137.91;;;35.32;22.19
77077;BME280;66003;52.286;104.306;2023-07-22T05:45:32;96141.69;;;35.51;21.93
77077;BME280;66003;52.286;104.306;2023-07-22T05:47:59;96116.91;;;35.31;22.65
77077;BME280;66003;52.286;104.306;2023-07-22T05:50:25;96134.53;;;35.63;22.13
77077;BME280;66003;52.286;104.306;2023-07-22T05:52:51;96133.75;;;35.62;22.21
77077;BME280;66003;52.286;104.306;2023-07-22T05:55:17;96129.19;;;36.03;22.47
77077;BME280;66003;52.286;104.306;2023-07-22T05:57:46;96140.19;;;36.41;21.94
77077;BME280;66003;52.286;104.306;2023-07-22T06:00:14;96128.38;;;36.59;21.37
77077;BME280;66003;52.286;104.306;2023-07-22T06:02:40;96128.94;;;36.44;21.17
77077;BME280;66003;52.286;104.306;2023-07-22T06:05:07;96124.72;;;36.40;21.58
77077;BME280;66003;52.286;104.306;2023-07-22T06:07:33;96135.06;;;36.39;21.67
77077;BME280;66003;52.286;104.306;2023-07-22T06:09:59;96132.59;;;36.19;21.69
77077;BME280;66003;52.286;104.306;2023-07-22T06:12:25;96130.69;;;36.29;22.13
77077;BME280;66003;52.286;104.306;2023-07-22T06:14:51;96126.06;;;35.79;22.38
77077;BME280;66003;52.286;104.306;2023-07-22T06:17:18;96127.88;;;35.47;22.93
77077;BME280;66003;52.286;104.306;2023-07-22T06:19:46;96125.81;;;35.39;23.08
77077;BME280;66003;52.286;104.306;2023-07-22T06:22:12;96131.97;;;35.56;23.64
77077;BME280;66003;52.286;104.306;2023-07-22T06:24:38;96120.00;;;35.93;22.99
77077;BME280;66003;52.286;104.306;2023-07-22T06:27:04;96114.53;;;36.24;22.75
77077;BME280;66003;52.286;104.306;2023-07-22T06:29:30;96120.25;;;36.42;22.63
77077;BME280;66003;52.286;104.306;2023-07-22T06:31:56;96112.81;;;36.39;22.72
77077;BME280;66003;52.286;104.306;2023-07-22T06:34:22;96122.50;;;36.57;22.89
77077;BME280;66003;52.286;104.306;2023-07-22T06:36:48;96115.31;;;36.68;22.26
77077;BME280;66003;52.286;104.306;2023-07-22T06:39:15;96107.78;;;36.78;21.86
77077;BME280;66003;52.286;104.306;2023-07-22T06:41:41;96116.72;;;36.73;21.41
77077;BME280;66003;52.286;104.306;2023-07-22T06:44:07;96121.72;;;36.56;21.80
77077;BME280;66003;52.286;104.306;2023-07-22T06:46:33;96120.00;;;35.93;22.87
77077;BME280;66003;52.286;104.306;2023-07-22T06:48:59;96117.59;;;35.70;22.86
77077;BME280;66003;52.286;104.306;2023-07-22T06:51:25;96123.66;;;35.43;23.12
77077;BME280;66003;52.286;104.306;2023-07-22T06:53:51;96122.91;;;35.30;23.59
77077;BME280;66003;52.286;104.306;2023-07-22T06:56:18;96116.25;;;35.27;23.65
77077;BME280;66003;52.286;104.306;2023-07-22T06:58:44;96115.75;;;35.41;23.57
77077;BME280;66003;52.286;104.306;2023-07-22T07:01:10;96112.53;;;35.18;23.76
77077;BME280;66003;52.286;104.306;2023-07-22T07:03:36;96116.88;;;35.06;23.84
77077;BME280;66003;52.286;104.306;2023-07-22T07:06:02;96099.75;;;34.82;24.35
77077;BME280;66003;52.286;104.306;2023-07-22T07:08:28;96106.75;;;34.74;24.32
77077;BME280;66003;52.286;104.306;2023-07-22T07:10:54;96097.75;;;34.57;24.66
77077;BME280;66003;52.286;104.306;2023-07-22T07:13:21;96105.56;;;34.46;24.54
77077;BME280;66003;52.286;104.306;2023-07-22T07:15:47;96113.91;;;34.46;24.83
77077;BME280;66003;52.286;104.306;2023-07-22T07:18:16;96112.38;;;34.16;24.94
77077;BME280;66003;52.286;104.306;2023-07-22T07:20:44;96120.94;;;34.22;25.07
77077;BME280;66003;52.286;104.306;2023-07-22T07:23:10;96106.91;;;34.13;25.32
77077;BME280;66003;52.286;104.306;2023-07-22T07:25:37;96098.75;;;33.93;25.50
77077;BME280;66003;52.286;104.306;2023-07-22T07:28:04;96102.44;;;34.02;25.59
77077;BME280;66003;52.286;104.306;2023-07-22T07:30:31;96115.47;;;33.89;26.14
77077;BME280;66003;52.286;104.306;2023-07-22T07:32:57;96103.06;;;33.94;25.98
77077;BME280;66003;52.286;104.306;2023-07-22T07:35:23;96094.69;;;33.81;25.51
77077;BME280;66003;52.286;104.306;2023-07-22T07:37:50;96092.72;;;33.82;25.26
77077;BME280;66003;52.286;104.306;2023-07-22T07:40:16;96084.81;;;33.80;25.84
77077;BME280;66003;52.286;104.306;2023-07-22T07:42:42;96074.84;;;33.83;25.72
77077;BME280;66003;52.286;104.306;2023-07-22T07:45:08;96080.53;;;33.92;25.91
77077;BME280;66003;52.286;104.306;2023-07-22T07:47:35;96086.91;;;34.05;25.18
77077;BME280;66003;52.286;104.306;2023-07-22T07:50:01;96077.91;;;34.01;25.25
77077;BME280;66003;52.286;104.306;2023-07-22T07:52:30;96080.38;;;34.12;25.51
77077;BME280;66003;52.286;104.306;2023-07-22T07:54:57;96065.97;;;34.46;25.32
77077;BME280;66003;52.286;104.306;2023-07-22T07:57:23;96078.56;;;34.88;24.58
77077;BME280;66003;52.286;104.306;2023-07-22T07:59:49;96080.22;;;34.98;24.18
77077;BME280;66003;52.286;104.306;2023-07-22T08:02:15;96069.78;;;34.90;24.78
77077;BME280;66003;52.286;104.306;2023-07-22T08:04:41;96075.44;;;34.19;25.60
77077;BME280;66003;52.286;104.306;2023-07-22T08:07:07;96063.13;;;33.14;26.51
77077;BME280;66003;52.286;104.306;2023-07-22T08:09:34;96050.50;;;32.80;27.67
77077;BME280;66003;52.286;104.306;2023-07-22T08:12:01;96061.47;;;32.84;27.19
77077;BME280;66003;52.286;104.306;2023-07-22T08:14:27;96047.00;;;32.40;27.61
77077;BME280;66003;52.286;104.306;2023-07-22T08:16:53;96045.88;;;32.38;27.73
77077;BME280;66003;52.286;104.306;2023-07-22T08:19:20;96036.13;;;32.49;27.52
77077;BME280;66003;52.286;104.306;2023-07-22T08:21:46;96043.47;;;32.40;27.95
77077;BME280;66003;52.286;104.306;2023-07-22T08:24:12;96036.41;;;32.19;28.67
77077;BME280;66003;52.286;104.306;2023-07-22T08:26:38;96045.78;;;32.41;28.32
77077;BME280;66003;52.286;104.306;2023-07-22T08:29:04;96038.41;;;32.35;27.68
77077;BME280;66003;52.286;104.306;2023-07-22T08:31:30;96046.94;;;32.44;27.79
77077;BME280;66003;52.286;104.306;2023-07-22T08:33:56;96036.13;;;32.49;28.00
77077;BME280;66003;52.286;104.306;2023-07-22T08:36:22;96032.31;;;32.79;28.42
77077;BME280;66003;52.286;104.306;2023-07-22T08:38:48;96039.22;;;33.20;27.10
77077;BME280;66003;52.286;104.306;2023-07-22T08:41:15;96033.63;;;33.40;27.11
77077;BME280;66003;52.286;104.306;2023-07-22T08:43:43;96046.16;;;33.44;26.38
77077;BME280;66003;52.286;104.306;2023-07-22T08:46:12;96035.75;;;32.83;26.74
77077;BME280;66003;52.286;104.306;2023-07-22T08:48:41;96033.34;;;32.49;27.46
77077;BME280;66003;52.286;104.306;2023-07-22T08:51:27;95994.78;;;32.58;27.36
77077;BME280;66003;52.286;104.306;2023-07-22T08:53:58;96027.19;;;32.94;27.52
77077;BME280;66003;52.286;104.306;2023-07-22T08:56:25;96019.41;;;33.38;27.11
77077;BME280;66003;52.286;104.306;2023-07-22T08:58:52;96005.63;;;33.50;26.77
77077;BME280;66003;52.286;104.306;2023-07-22T09:01:18;96014.56;;;33.70;25.99
77077;BME280;66003;52.286;104.306;2023-07-22T09:03:48;96010.06;;;33.77;25.79
77077;BME280;66003;52.286;104.306;2023-07-22T09:06:18;96003.06;;;33.56;26.50
77077;BME280;66003;52.286;104.306;2023-07-22T09:08:45;96008.94;;;33.74;25.82
77077;BME280;66003;52.286;104.306;2023-07-22T09:11:11;95995.84;;;33.46;26.34
77077;BME280;66003;52.286;104.306;2023-07-22T09:13:38;95995.25;;;33.22;26.72
77077;BME280;66003;52.286;104.306;2023-07-22T09:16:06;95998.91;;;33.03;26.88
77077;BME280;66003;52.286;104.306;2023-07-22T09:18:33;96004.81;;;32.88;27.12
77077;BME280;66003;52.286;104.306;2023-07-22T09:21:02;95987.47;;;32.68;27.31
77077;BME280;66003;52.286;104.306;2023-07-22T09:23:36;96008.31;;;32.20;28.45
77077;BME280;66003;52.286;104.306;2023-07-22T09:26:11;95989.91;;;31.74;28.89
77077;BME280;66003;52.286;104.306;2023-07-22T09:28:53;95983.66;;;31.70;28.82
77077;BME280;66003;52.286;104.306;2023-07-22T09:31:22;95991.34;;;31.59;29.23
77077;BME280;66003;52.286;104.306;2023-07-22T09:33:49;96005.44;;;31.45;28.99
77077;BME280;66003;52.286;104.306;2023-07-22T09:36:16;95987.34;;;31.20;29.78
77077;BME280;66003;52.286;104.306;2023-07-22T09:38:42;95986.69;;;31.13;29.76
77077;BME280;66003;52.286;104.306;2023-07-22T09:41:08;95989.03;;;31.14;29.85
77077;BME280;66003;52.286;104.306;2023-07-22T09:43:38;95986.72;;;31.33;29.70
77077;BME280;66003;52.286;104.306;2023-07-22T09:46:09;95977.72;;;31.29;29.79
77077;BME280;66003;52.286;104.306;2023-07-22T09:48:43;95976.94;;;31.28;29.94
77077;BME280;66003;52.286;104.306;2023-07-22T09:51:15;95963.63;;;31.23;29.25
77077;BME280;66003;52.286;104.306;2023-07-22T09:53:58;95972.19;;;31.29;29.73
77077;BME280;66003;52.286;104.306;2023-07-22T09:56:25;95970.91;;;31.13;29.67
77077;BME280;66003;52.286;104.306;2023-07-22T09:58:52;95968.16;;;31.13;29.82
77077;BME280;66003;52.286;104.306;2023-07-22T10:01:24;95967.66;;;31.18;29.95
77077;BME280;66003;52.286;104.306;2023-07-22T10:03:53;95969.34;;;31.12;29.68
77077;BME280;66003;52.286;104.306;2023-07-22T10:06:27;95974.09;;;31.08;29.77
77077;BME280;66003;52.286;104.306;2023-07-22T10:09:03;95976.09;;;31.08;30.18
77077;BME280;66003;52.286;104.306;2023-07-22T10:11:34;95977.47;;;30.96;30.06
77077;BME280;66003;52.286;104.306;2023-07-22T10:14:05;95956.19;;;30.97;30.26
77077;BME280;66003;52.286;104.306;2023-07-22T10:16:31;95960.19;;;30.92;30.23
77077;BME280;66003;52.286;104.306;2023-07-22T10:18:59;95970.69;;;31.01;30.57
77077;BME280;66003;52.286;104.306;2023-07-22T10:21:25;95968.47;;;30.92;30.74
77077;BME280;66003;52.286;104.306;2023-07-22T10:23:52;95956.69;;;30.92;30.35
77077;BME280;66003;52.286;104.306;2023-07-22T10:26:19;95957.13;;;30.86;30.46
77077;BME280;66003;52.286;104.306;2023-07-22T10:28:47;95946.84;;;30.67;30.71
77077;BME280;66003;52.286;104.306;2023-07-22T10:31:14;95969.75;;;30.64;30.64
77077;BME280;66003;52.286;104.306;2023-07-22T10:33:46;95957.69;;;30.55;31.16
77077;BME280;66003;52.286;104.306;2023-07-22T10:36:15;95956.41;;;30.59;30.89
77077;BME280;66003;52.286;104.306;2023-07-22T10:38:42;95960.03;;;30.52;31.16
77077;BME280;66003;52.286;104.306;2023-07-22T10:41:15;95949.22;;;30.65;31.21
77077;BME280;66003;52.286;104.306;2023-07-22T10:43:54;95960.25;;;30.65;30.73
77077;BME280;66003;52.286;104.306;2023-07-22T10:46:34;95959.72;;;30.47;31.05
77077;BME280;66003;52.286;104.306;2023-07-22T10:49:14;95967.22;;;30.46;31.79
77077;BME280;66003;52.286;104.306;2023-07-22T10:51:48;95952.09;;;30.31;31.69
77077;BME280;66003;52.286;104.306;2023-07-22T10:54:15;95952.19;;;30.24;31.35
77077;BME280;66003;52.286;104.306;2023-07-22T10:57:02;95945.44;;;30.29;31.23
77077;BME280;66003;52.286;104.306;2023-07-22T10:59:32;95949.06;;;30.22;31.29
77077;BME280;66003;52.286;104.306;2023-07-22T11:02:02;95951.19;;;30.11;31.28
77077;BME280;66003;52.286;104.306;2023-07-22T11:04:33;95959.47;;;30.11;31.52
77077;BME280;66003;52.286;104.306;2023-07-22T11:07:05;95964.38;;;30.27;31.60
77077;BME280;66003;52.286;104.306;2023-07-22T11:09:35;95962.97;;;30.15;31.77
77077;BME280;66003;52.286;104.306;2023-07-22T11:12:13;95947.56;;;30.17;31.96
77077;BME280;66003;52.286;104.306;2023-07-22T11:17:12;95948.28;;;29.91;32.03
77077;BME280;66003;52.286;104.306;2023-07-22T11:19:38;95958.91;;;29.93;31.75
77077;BME280;66003;52.286;104.306;2023-07-22T11:22:05;95953.84;;;29.88;32.22
77077;BME280;66003;52.286;104.306;2023-07-22T11:24:35;95957.25;;;29.99;32.45
77077;BME280;66003;52.286;104.306;2023-07-22T11:27:05;95960.50;;;29.90;32.61
77077;BME280;66003;52.286;104.306;2023-07-22T11:29:32;95957.16;;;29.75;32.11
77077;BME280;66003;52.286;104.306;2023-07-22T11:31:58;95958.44;;;29.67;32.75
77077;BME280;66003;52.286;104.306;2023-07-22T11:34:25;95938.53;;;29.53;32.79
77077;BME280;66003;52.286;104.306;2023-07-22T11:36:53;95957.75;;;29.60;33.15
77077;BME280;66003;52.286;104.306;2023-07-22T11:39:21;95956.97;;;29.59;33.33
77077;BME280;66003;52.286;104.306;2023-07-22T11:41:48;95962.50;;;29.56;33.27
77077;BME280;66003;52.286;104.306;2023-07-22T11:44:20;95941.69;;;29.51;33.01
77077;BME280;66003;52.286;104.306;2023-07-22T11:47:07;95953.34;;;29.66;32.54
77077;BME280;66003;52.286;104.306;2023-07-22T11:49:41;95959.50;;;29.43;33.15
77077;BME280;66003;52.286;104.306;2023-07-22T11:52:15;95966.19;;;29.42;33.58
77077;BME280;66003;52.286;104.306;2023-07-22T11:54:44;95955.69;;;29.30;33.12
77077;BME280;66003;52.286;104.306;2023-07-22T11:59:45;95956.66;;;29.13;33.56
77077;BME280;66003;52.286;104.306;2023-07-22T12:02:19;95955.09;;;29.12;33.89
77077;BME280;66003;52.286;104.306;2023-07-22T12:05:00;95956.22;;;29.18;34.36
77077;BME280;66003;52.286;104.306;2023-07-22T12:07:27;95979.25;;;28.93;34.35
77077;BME280;66003;52.286;104.306;2023-07-22T12:09:55;95978.59;;;28.79;34.65
77077;BME280;66003;52.286;104.306;2023-07-22T12:12:33;95971.50;;;28.81;34.83
77077;BME280;66003;52.286;104.306;2023-07-22T12:15:13;95981.72;;;28.81;34.83
77077;BME280;66003;52.286;104.306;2023-07-22T12:17:45;95965.44;;;28.49;35.65
77077;BME280;66003;52.286;104.306;2023-07-22T12:20:12;95971.00;;;28.42;35.60
77077;BME280;66003;52.286;104.306;2023-07-22T12:22:38;95971.81;;;28.38;34.95
77077;BME280;66003;52.286;104.306;2023-07-22T12:25:05;95978.91;;;28.32;35.47
77077;BME280;66003;52.286;104.306;2023-07-22T12:27:32;95985.25;;;28.22;35.61
77077;BME280;66003;52.286;104.306;2023-07-22T12:29:58;95984.50;;;28.11;36.40
77077;BME280;66003;52.286;104.306;2023-07-22T12:32:24;95982.22;;;27.99;36.22
77077;BME280;66003;52.286;104.306;2023-07-22T12:34:50;95980.25;;;28.03;36.69
77077;BME280;66003;52.286;104.306;2023-07-22T12:37:16;95978.00;;;27.80;36.81
77077;BME280;66003;52.286;104.306;2023-07-22T12:39:42;95987.84;;;27.67;37.47
77077;BME280;66003;52.286;104.306;2023-07-22T12:42:08;95983.94;;;27.64;37.13
77077;BME280;66003;52.286;104.306;2023-07-22T12:44:34;95990.66;;;27.49;37.50
77077;BME280;66003;52.286;104.306;2023-07-22T12:47:00;95980.88;;;27.34;38.28